Terminal Aerodrome Forecast
Issued by NWS

Home | Current Version | Previous Version | Text Only | Print | Product List | Glossary On
Versions: 1 2 3 4 5 6 7 8 9 10 11 12 13 14 15 16 17 18
000
FTUS44 KCRP 190200 AAB
TAFLRD
TAF AMD
KLRD 190215Z 1902/1924 VRB03KT 2SM BR OVC003
      TEMPO 1902/1906 1/2SM FG OVC001
     FM190600 34004KT 4SM BR VCSH OVC007
      TEMPO 1910/1913 2SM SHRA BR OVC004
     FM191400 34010KT P6SM VCTS BKN020CB
     FM191700 36009KT P6SM BKN060=

USA.gov is the U.S. government's official web portal to all federal, state and local government web resources and services.